sensor_id;sensor_type;location;lat;lon;timestamp;P1;durP1;ratioP1;P2;durP2;ratioP2
37937;SDS011;23763;48.130;11.602;2023-05-07T00:02:21;7.60;;;6.20;;
37937;SDS011;23763;48.130;11.602;2023-05-07T00:04:47;9.82;;;5.78;;
37937;SDS011;23763;48.130;11.602;2023-05-07T00:07:13;7.40;;;6.60;;
37937;SDS011;23763;48.130;11.602;2023-05-07T00:09:39;6.43;;;5.82;;
37937;SDS011;23763;48.130;11.602;2023-05-07T00:12:05;7.10;;;5.63;;
37937;SDS011;23763;48.130;11.602;2023-05-07T00:14:31;6.63;;;5.57;;
37937;SDS011;23763;48.130;11.602;2023-05-07T00:16:56;11.05;;;7.07;;
37937;SDS011;23763;48.130;11.602;2023-05-07T00:19:22;8.35;;;6.50;;
37937;SDS011;23763;48.130;11.602;2023-05-07T00:21:48;10.45;;;6.95;;
37937;SDS011;23763;48.130;11.602;2023-05-07T00:24:13;7.95;;;6.55;;
37937;SDS011;23763;48.130;11.602;2023-05-07T00:26:39;6.72;;;6.03;;
37937;SDS011;23763;48.130;11.602;2023-05-07T00:29:04;7.85;;;6.28;;
37937;SDS011;23763;48.130;11.602;2023-05-07T00:31:30;7.10;;;5.75;;
37937;SDS011;23763;48.130;11.602;2023-05-07T00:33:55;9.27;;;5.95;;
37937;SDS011;23763;48.130;11.602;2023-05-07T00:36:21;9.40;;;6.38;;
37937;SDS011;23763;48.130;11.602;2023-05-07T00:38:47;6.53;;;5.93;;
37937;SDS011;23763;48.130;11.602;2023-05-07T00:41:12;6.20;;;5.60;;
37937;SDS011;23763;48.130;11.602;2023-05-07T00:43:38;6.35;;;5.75;;
37937;SDS011;23763;48.130;11.602;2023-05-07T00:46:03;10.73;;;5.93;;
37937;SDS011;23763;48.130;11.602;2023-05-07T00:48:30;6.65;;;5.95;;
37937;SDS011;23763;48.130;11.602;2023-05-07T00:50:56;6.18;;;5.28;;
37937;SDS011;23763;48.130;11.602;2023-05-07T00:53:22;10.70;;;6.10;;
37937;SDS011;23763;48.130;11.602;2023-05-07T00:55:48;7.43;;;6.18;;
37937;SDS011;23763;48.130;11.602;2023-05-07T00:58:13;8.90;;;5.93;;
37937;SDS011;23763;48.130;11.602;2023-05-07T01:00:39;6.57;;;5.72;;
37937;SDS011;23763;48.130;11.602;2023-05-07T01:03:05;6.70;;;5.65;;
37937;SDS011;23763;48.130;11.602;2023-05-07T01:05:31;6.82;;;6.13;;
37937;SDS011;23763;48.130;11.602;2023-05-07T01:07:57;7.18;;;6.53;;
37937;SDS011;23763;48.130;11.602;2023-05-07T01:10:23;8.10;;;7.03;;
37937;SDS011;23763;48.130;11.602;2023-05-07T01:12:49;7.70;;;6.10;;
37937;SDS011;23763;48.130;11.602;2023-05-07T01:15:16;6.65;;;6.00;;
37937;SDS011;23763;48.130;11.602;2023-05-07T01:17:42;13.50;;;11.25;;
37937;SDS011;23763;48.130;11.602;2023-05-07T01:20:09;6.68;;;5.82;;
37937;SDS011;23763;48.130;11.602;2023-05-07T01:22:36;6.13;;;5.43;;
37937;SDS011;23763;48.130;11.602;2023-05-07T01:25:03;8.18;;;6.10;;
37937;SDS011;23763;48.130;11.602;2023-05-07T01:27:29;6.85;;;6.20;;
37937;SDS011;23763;48.130;11.602;2023-05-07T01:29:55;6.63;;;6.07;;
37937;SDS011;23763;48.130;11.602;2023-05-07T01:32:23;6.18;;;5.57;;
37937;SDS011;23763;48.130;11.602;2023-05-07T01:34:54;6.45;;;5.85;;
37937;SDS011;23763;48.130;11.602;2023-05-07T01:37:22;6.38;;;5.70;;
37937;SDS011;23763;48.130;11.602;2023-05-07T01:39:49;7.22;;;6.00;;
37937;SDS011;23763;48.130;11.602;2023-05-07T01:42:15;5.88;;;5.28;;
37937;SDS011;23763;48.130;11.602;2023-05-07T01:44:41;7.25;;;5.70;;
37937;SDS011;23763;48.130;11.602;2023-05-07T01:47:06;7.90;;;6.18;;
37937;SDS011;23763;48.130;11.602;2023-05-07T01:49:33;6.97;;;6.38;;
37937;SDS011;23763;48.130;11.602;2023-05-07T01:51:59;7.45;;;6.75;;
37937;SDS011;23763;48.130;11.602;2023-05-07T01:54:26;7.40;;;6.70;;
37937;SDS011;23763;48.130;11.602;2023-05-07T01:56:55;8.57;;;6.65;;
37937;SDS011;23763;48.130;11.602;2023-05-07T01:59:22;8.27;;;6.60;;
37937;SDS011;23763;48.130;11.602;2023-05-07T02:01:47;7.50;;;6.80;;
37937;SDS011;23763;48.130;11.602;2023-05-07T02:04:13;9.70;;;6.97;;
37937;SDS011;23763;48.130;11.602;2023-05-07T02:06:39;7.65;;;6.57;;
37937;SDS011;23763;48.130;11.602;2023-05-07T02:09:04;7.40;;;6.47;;
37937;SDS011;23763;48.130;11.602;2023-05-07T02:11:30;7.03;;;6.40;;
37937;SDS011;23763;48.130;11.602;2023-05-07T02:13:56;8.35;;;7.53;;
37937;SDS011;23763;48.130;11.602;2023-05-07T02:16:21;8.05;;;7.25;;
37937;SDS011;23763;48.130;11.602;2023-05-07T02:18:48;9.73;;;7.45;;
37937;SDS011;23763;48.130;11.602;2023-05-07T02:21:14;10.27;;;8.48;;
37937;SDS011;23763;48.130;11.602;2023-05-07T02:23:40;9.15;;;8.25;;
37937;SDS011;23763;48.130;11.602;2023-05-07T02:26:05;9.10;;;8.07;;
37937;SDS011;23763;48.130;11.602;2023-05-07T02:28:31;7.32;;;6.60;;
37937;SDS011;23763;48.130;11.602;2023-05-07T02:30:57;9.38;;;7.43;;
37937;SDS011;23763;48.130;11.602;2023-05-07T02:33:25;7.82;;;6.35;;
37937;SDS011;23763;48.130;11.602;2023-05-07T02:35:51;11.27;;;7.88;;
37937;SDS011;23763;48.130;11.602;2023-05-07T02:38:17;11.38;;;8.55;;
37937;SDS011;23763;48.130;11.602;2023-05-07T02:40:42;9.13;;;7.32;;
37937;SDS011;23763;48.130;11.602;2023-05-07T02:43:08;7.30;;;6.70;;
37937;SDS011;23763;48.130;11.602;2023-05-07T02:45:34;6.82;;;6.03;;
37937;SDS011;23763;48.130;11.602;2023-05-07T02:48:01;6.93;;;5.70;;
37937;SDS011;23763;48.130;11.602;2023-05-07T02:50:26;7.15;;;5.72;;
37937;SDS011;23763;48.130;11.602;2023-05-07T02:52:52;7.25;;;6.25;;
37937;SDS011;23763;48.130;11.602;2023-05-07T02:55:17;6.00;;;5.40;;
37937;SDS011;23763;48.130;11.602;2023-05-07T02:57:43;6.30;;;5.60;;
37937;SDS011;23763;48.130;11.602;2023-05-07T03:00:13;5.68;;;5.15;;
37937;SDS011;23763;48.130;11.602;2023-05-07T03:02:40;4.93;;;4.43;;
37937;SDS011;23763;48.130;11.602;2023-05-07T03:05:05;6.35;;;4.47;;
37937;SDS011;23763;48.130;11.602;2023-05-07T03:07:31;6.30;;;4.68;;
37937;SDS011;23763;48.130;11.602;2023-05-07T03:09:57;4.68;;;4.28;;
37937;SDS011;23763;48.130;11.602;2023-05-07T03:12:22;4.47;;;4.07;;
37937;SDS011;23763;48.130;11.602;2023-05-07T03:14:48;7.88;;;4.05;;
37937;SDS011;23763;48.130;11.602;2023-05-07T03:17:14;5.10;;;4.57;;
37937;SDS011;23763;48.130;11.602;2023-05-07T03:19:41;6.70;;;4.80;;
37937;SDS011;23763;48.130;11.602;2023-05-07T03:22:06;5.55;;;4.47;;
37937;SDS011;23763;48.130;11.602;2023-05-07T03:24:32;6.57;;;5.35;;
37937;SDS011;23763;48.130;11.602;2023-05-07T03:26:57;5.45;;;4.90;;
37937;SDS011;23763;48.130;11.602;2023-05-07T03:29:23;5.03;;;4.57;;
37937;SDS011;23763;48.130;11.602;2023-05-07T03:31:49;6.63;;;5.03;;
37937;SDS011;23763;48.130;11.602;2023-05-07T03:34:15;6.22;;;4.47;;
37937;SDS011;23763;48.130;11.602;2023-05-07T03:36:42;5.40;;;4.72;;
37937;SDS011;23763;48.130;11.602;2023-05-07T03:39:07;4.60;;;4.20;;
37937;SDS011;23763;48.130;11.602;2023-05-07T03:41:33;4.60;;;4.10;;
37937;SDS011;23763;48.130;11.602;2023-05-07T03:43:59;5.93;;;4.30;;
37937;SDS011;23763;48.130;11.602;2023-05-07T03:46:24;5.00;;;4.07;;
37937;SDS011;23763;48.130;11.602;2023-05-07T03:48:51;4.47;;;4.07;;
37937;SDS011;23763;48.130;11.602;2023-05-07T03:51:17;4.32;;;3.92;;
37937;SDS011;23763;48.130;11.602;2023-05-07T03:53:42;5.05;;;4.22;;
37937;SDS011;23763;48.130;11.602;2023-05-07T03:56:08;4.32;;;4.03;;
37937;SDS011;23763;48.130;11.602;2023-05-07T03:58:34;5.03;;;4.60;;
37937;SDS011;23763;48.130;11.602;2023-05-07T04:01:00;7.00;;;4.32;;
37937;SDS011;23763;48.130;11.602;2023-05-07T04:03:26;4.68;;;4.20;;
37937;SDS011;23763;48.130;11.602;2023-05-07T04:05:51;4.70;;;4.28;;
37937;SDS011;23763;48.130;11.602;2023-05-07T04:08:17;4.15;;;3.72;;
37937;SDS011;23763;48.130;11.602;2023-05-07T04:10:43;4.22;;;3.83;;
37937;SDS011;23763;48.130;11.602;2023-05-07T04:13:08;5.38;;;3.95;;
37937;SDS011;23763;48.130;11.602;2023-05-07T04:15:35;4.65;;;4.25;;
37937;SDS011;23763;48.130;11.602;2023-05-07T04:18:00;5.63;;;4.03;;
37937;SDS011;23763;48.130;11.602;2023-05-07T04:20:26;7.70;;;5.00;;
37937;SDS011;23763;48.130;11.602;2023-05-07T04:22:52;4.15;;;3.70;;
37937;SDS011;23763;48.130;11.602;2023-05-07T04:25:17;4.15;;;3.33;;
37937;SDS011;23763;48.130;11.602;2023-05-07T04:27:43;3.78;;;3.30;;
37937;SDS011;23763;48.130;11.602;2023-05-07T04:30:08;3.95;;;3.35;;
37937;SDS011;23763;48.130;11.602;2023-05-07T04:32:34;4.03;;;3.63;;
37937;SDS011;23763;48.130;11.602;2023-05-07T04:35:01;4.22;;;3.83;;
37937;SDS011;23763;48.130;11.602;2023-05-07T04:37:27;3.80;;;3.50;;
37937;SDS011;23763;48.130;11.602;2023-05-07T04:39:52;3.95;;;3.65;;
37937;SDS011;23763;48.130;11.602;2023-05-07T04:42:18;4.43;;;4.03;;
37937;SDS011;23763;48.130;11.602;2023-05-07T04:44:44;5.38;;;3.75;;
37937;SDS011;23763;48.130;11.602;2023-05-07T04:47:10;3.92;;;3.53;;
37937;SDS011;23763;48.130;11.602;2023-05-07T04:49:37;4.55;;;3.70;;
37937;SDS011;23763;48.130;11.602;2023-05-07T04:52:03;5.10;;;3.78;;
37937;SDS011;23763;48.130;11.602;2023-05-07T04:54:29;4.93;;;3.85;;
37937;SDS011;23763;48.130;11.602;2023-05-07T04:56:54;4.25;;;3.85;;
37937;SDS011;23763;48.130;11.602;2023-05-07T04:59:20;4.85;;;3.63;;
37937;SDS011;23763;48.130;11.602;2023-05-07T05:01:46;3.80;;;3.42;;
37937;SDS011;23763;48.130;11.602;2023-05-07T05:04:12;6.93;;;4.45;;
37937;SDS011;23763;48.130;11.602;2023-05-07T05:06:38;4.88;;;3.67;;
37937;SDS011;23763;48.130;11.602;2023-05-07T05:09:04;3.55;;;3.25;;
37937;SDS011;23763;48.130;11.602;2023-05-07T05:11:30;3.95;;;3.63;;
37937;SDS011;23763;48.130;11.602;2023-05-07T05:13:59;4.47;;;3.95;;
37937;SDS011;23763;48.130;11.602;2023-05-07T05:16:25;4.55;;;3.25;;
37937;SDS011;23763;48.130;11.602;2023-05-07T05:18:51;4.60;;;3.83;;
37937;SDS011;23763;48.130;11.602;2023-05-07T05:21:17;5.15;;;4.05;;
37937;SDS011;23763;48.130;11.602;2023-05-07T05:23:58;5.13;;;3.85;;
37937;SDS011;23763;48.130;11.602;2023-05-07T05:29:25;5.55;;;4.07;;
37937;SDS011;23763;48.130;11.602;2023-05-07T05:32:14;6.63;;;3.85;;
37937;SDS011;23763;48.130;11.602;2023-05-07T05:35:25;5.68;;;4.07;;
37937;SDS011;23763;48.130;11.602;2023-05-07T05:37:51;4.22;;;3.83;;
37937;SDS011;23763;48.130;11.602;2023-05-07T05:40:19;4.30;;;3.90;;
37937;SDS011;23763;48.130;11.602;2023-05-07T05:42:48;4.05;;;3.70;;
37937;SDS011;23763;48.130;11.602;2023-05-07T05:45:14;5.60;;;4.25;;
37937;SDS011;23763;48.130;11.602;2023-05-07T05:47:39;4.32;;;3.92;;
37937;SDS011;23763;48.130;11.602;2023-05-07T05:50:06;4.60;;;4.18;;
37937;SDS011;23763;48.130;11.602;2023-05-07T05:52:32;4.18;;;3.88;;
37937;SDS011;23763;48.130;11.602;2023-05-07T05:54:57;4.65;;;4.22;;
37937;SDS011;23763;48.130;11.602;2023-05-07T05:57:23;5.20;;;3.78;;
37937;SDS011;23763;48.130;11.602;2023-05-07T05:59:49;4.43;;;4.03;;
37937;SDS011;23763;48.130;11.602;2023-05-07T06:02:14;4.60;;;3.70;;
37937;SDS011;23763;48.130;11.602;2023-05-07T06:04:40;5.25;;;4.75;;
37937;SDS011;23763;48.130;11.602;2023-05-07T06:07:07;6.07;;;3.90;;
37937;SDS011;23763;48.130;11.602;2023-05-07T06:09:33;5.13;;;4.20;;
37937;SDS011;23763;48.130;11.602;2023-05-07T06:11:58;4.80;;;4.22;;
37937;SDS011;23763;48.130;11.602;2023-05-07T06:14:24;5.15;;;3.95;;
37937;SDS011;23763;48.130;11.602;2023-05-07T06:16:49;4.40;;;4.00;;
37937;SDS011;23763;48.130;11.602;2023-05-07T06:19:15;5.90;;;3.97;;
37937;SDS011;23763;48.130;11.602;2023-05-07T06:21:43;3.55;;;3.33;;
37937;SDS011;23763;48.130;11.602;2023-05-07T06:24:08;3.90;;;3.50;;
37937;SDS011;23763;48.130;11.602;2023-05-07T06:26:34;4.13;;;3.83;;
37937;SDS011;23763;48.130;11.602;2023-05-07T06:29:00;3.92;;;3.45;;
37937;SDS011;23763;48.130;11.602;2023-05-07T06:31:28;3.90;;;3.50;;
37937;SDS011;23763;48.130;11.602;2023-05-07T06:33:56;3.92;;;3.63;;
37937;SDS011;23763;48.130;11.602;2023-05-07T06:36:21;4.55;;;3.65;;
37937;SDS011;23763;48.130;11.602;2023-05-07T06:38:47;4.18;;;3.78;;
37937;SDS011;23763;48.130;11.602;2023-05-07T06:41:13;3.47;;;3.25;;
37937;SDS011;23763;48.130;11.602;2023-05-07T06:43:38;4.15;;;3.50;;
37937;SDS011;23763;48.130;11.602;2023-05-07T06:46:04;6.53;;;3.90;;
37937;SDS011;23763;48.130;11.602;2023-05-07T06:48:30;5.18;;;3.70;;
37937;SDS011;23763;48.130;11.602;2023-05-07T06:50:55;6.90;;;3.40;;
37937;SDS011;23763;48.130;11.602;2023-05-07T06:53:22;4.93;;;3.85;;
37937;SDS011;23763;48.130;11.602;2023-05-07T06:55:48;4.90;;;3.40;;
37937;SDS011;23763;48.130;11.602;2023-05-07T06:58:14;3.40;;;3.10;;
37937;SDS011;23763;48.130;11.602;2023-05-07T07:00:39;3.90;;;2.80;;
37937;SDS011;23763;48.130;11.602;2023-05-07T07:03:05;4.10;;;3.70;;
37937;SDS011;23763;48.130;11.602;2023-05-07T07:05:31;3.55;;;3.10;;
37937;SDS011;23763;48.130;11.602;2023-05-07T07:07:57;4.07;;;3.17;;
37937;SDS011;23763;48.130;11.602;2023-05-07T07:10:23;2.75;;;2.55;;
37937;SDS011;23763;48.130;11.602;2023-05-07T07:12:49;3.70;;;2.92;;
37937;SDS011;23763;48.130;11.602;2023-05-07T07:15:15;3.60;;;3.00;;
37937;SDS011;23763;48.130;11.602;2023-05-07T07:17:41;4.10;;;2.97;;
37937;SDS011;23763;48.130;11.602;2023-05-07T07:20:07;3.40;;;3.10;;
37937;SDS011;23763;48.130;11.602;2023-05-07T07:22:33;4.95;;;3.00;;
37937;SDS011;23763;48.130;11.602;2023-05-07T07:24:59;3.03;;;2.70;;
37937;SDS011;23763;48.130;11.602;2023-05-07T07:27:25;3.97;;;2.90;;
37937;SDS011;23763;48.130;11.602;2023-05-07T07:29:50;4.32;;;3.05;;
37937;SDS011;23763;48.130;11.602;2023-05-07T07:32:16;4.97;;;3.15;;
37937;SDS011;23763;48.130;11.602;2023-05-07T07:34:41;4.43;;;3.38;;
37937;SDS011;23763;48.130;11.602;2023-05-07T07:37:07;3.30;;;3.00;;
37937;SDS011;23763;48.130;11.602;2023-05-07T07:39:33;3.78;;;3.05;;
37937;SDS011;23763;48.130;11.602;2023-05-07T07:41:59;3.05;;;2.58;;
37937;SDS011;23763;48.130;11.602;2023-05-07T07:44:25;4.78;;;3.28;;
37937;SDS011;23763;48.130;11.602;2023-05-07T07:46:51;6.20;;;5.80;;
37937;SDS011;23763;48.130;11.602;2023-05-07T07:49:16;6.55;;;6.15;;
37937;SDS011;23763;48.130;11.602;2023-05-07T07:51:42;6.35;;;5.82;;
37937;SDS011;23763;48.130;11.602;2023-05-07T07:54:08;6.30;;;5.90;;
37937;SDS011;23763;48.130;11.602;2023-05-07T07:56:34;7.97;;;6.32;;
37937;SDS011;23763;48.130;11.602;2023-05-07T07:59:00;6.55;;;6.15;;
37937;SDS011;23763;48.130;11.602;2023-05-07T08:01:26;6.65;;;6.15;;
37937;SDS011;23763;48.130;11.602;2023-05-07T08:03:51;6.68;;;6.10;;
37937;SDS011;23763;48.130;11.602;2023-05-07T08:06:17;7.78;;;7.18;;
37937;SDS011;23763;48.130;11.602;2023-05-07T08:08:43;7.57;;;6.95;;
37937;SDS011;23763;48.130;11.602;2023-05-07T08:11:09;8.05;;;7.53;;
37937;SDS011;23763;48.130;11.602;2023-05-07T08:13:36;7.80;;;7.30;;
37937;SDS011;23763;48.130;11.602;2023-05-07T08:16:03;6.85;;;6.45;;
37937;SDS011;23763;48.130;11.602;2023-05-07T08:18:29;7.75;;;7.18;;
37937;SDS011;23763;48.130;11.602;2023-05-07T08:20:54;7.47;;;6.93;;
37937;SDS011;23763;48.130;11.602;2023-05-07T08:23:20;7.38;;;6.88;;
37937;SDS011;23763;48.130;11.602;2023-05-07T08:25:46;7.60;;;7.03;;
37937;SDS011;23763;48.130;11.602;2023-05-07T08:28:12;7.40;;;6.90;;
37937;SDS011;23763;48.130;11.602;2023-05-07T08:30:38;6.97;;;6.57;;
37937;SDS011;23763;48.130;11.602;2023-05-07T08:33:03;6.95;;;6.55;;
37937;SDS011;23763;48.130;11.602;2023-05-07T08:35:29;6.93;;;6.35;;
37937;SDS011;23763;48.130;11.602;2023-05-07T08:37:54;6.45;;;6.07;;
37937;SDS011;23763;48.130;11.602;2023-05-07T08:40:21;18.85;;;7.70;;
37937;SDS011;23763;48.130;11.602;2023-05-07T08:42:51;6.22;;;5.90;;
37937;SDS011;23763;48.130;11.602;2023-05-07T08:45:18;7.03;;;6.55;;
37937;SDS011;23763;48.130;11.602;2023-05-07T08:47:47;7.18;;;6.53;;
37937;SDS011;23763;48.130;11.602;2023-05-07T08:50:16;6.70;;;6.18;;
37937;SDS011;23763;48.130;11.602;2023-05-07T08:52:43;6.20;;;5.90;;
37937;SDS011;23763;48.130;11.602;2023-05-07T08:55:09;7.15;;;6.65;;
37937;SDS011;23763;48.130;11.602;2023-05-07T08:57:35;6.65;;;6.05;;
37937;SDS011;23763;48.130;11.602;2023-05-07T09:00:02;6.45;;;6.03;;
37937;SDS011;23763;48.130;11.602;2023-05-07T09:02:29;7.53;;;6.95;;
37937;SDS011;23763;48.130;11.602;2023-05-07T09:04:54;6.90;;;6.43;;
37937;SDS011;23763;48.130;11.602;2023-05-07T09:07:20;6.75;;;6.40;;
37937;SDS011;23763;48.130;11.602;2023-05-07T09:09:47;7.25;;;6.60;;
37937;SDS011;23763;48.130;11.602;2023-05-07T09:12:12;6.53;;;6.13;;
37937;SDS011;23763;48.130;11.602;2023-05-07T09:14:59;7.10;;;6.60;;
37937;SDS011;23763;48.130;11.602;2023-05-07T09:17:30;6.90;;;6.40;;
37937;SDS011;23763;48.130;11.602;2023-05-07T09:20:06;6.55;;;6.05;;
37937;SDS011;23763;48.130;11.602;2023-05-07T09:22:32;6.35;;;6.05;;
37937;SDS011;23763;48.130;11.602;2023-05-07T09:24:58;7.28;;;6.82;;
37937;SDS011;23763;48.130;11.602;2023-05-07T09:27:24;7.32;;;6.72;;
37937;SDS011;23763;48.130;11.602;2023-05-07T09:29:51;7.18;;;6.78;;
37937;SDS011;23763;48.130;11.602;2023-05-07T09:32:17;6.80;;;6.40;;
37937;SDS011;23763;48.130;11.602;2023-05-07T09:34:42;8.60;;;7.97;;
37937;SDS011;23763;48.130;11.602;2023-05-07T09:37:08;6.97;;;6.47;;
37937;SDS011;23763;48.130;11.602;2023-05-07T09:39:43;7.30;;;6.80;;
37937;SDS011;23763;48.130;11.602;2023-05-07T09:42:14;6.90;;;6.38;;
37937;SDS011;23763;48.130;11.602;2023-05-07T09:44:45;6.57;;;6.10;;
37937;SDS011;23763;48.130;11.602;2023-05-07T09:47:15;6.00;;;5.70;;
37937;SDS011;23763;48.130;11.602;2023-05-07T09:49:57;5.75;;;5.35;;
37937;SDS011;23763;48.130;11.602;2023-05-07T09:52:29;7.10;;;6.60;;
37937;SDS011;23763;48.130;11.602;2023-05-07T09:54:58;6.05;;;5.70;;
37937;SDS011;23763;48.130;11.602;2023-05-07T10:00:34;6.53;;;6.00;;
37937;SDS011;23763;48.130;11.602;2023-05-07T10:03:25;6.40;;;6.00;;
37937;SDS011;23763;48.130;11.602;2023-05-07T10:05:54;6.35;;;5.95;;
37937;SDS011;23763;48.130;11.602;2023-05-07T10:08:21;6.47;;;6.13;;
37937;SDS011;23763;48.130;11.602;2023-05-07T10:10:54;6.40;;;6.00;;
37937;SDS011;23763;48.130;11.602;2023-05-07T10:13:29;11.25;;;10.25;;
37937;SDS011;23763;48.130;11.602;2023-05-07T10:16:10;6.60;;;6.20;;
37937;SDS011;23763;48.130;11.602;2023-05-07T10:18:46;6.60;;;6.18;;
37937;SDS011;23763;48.130;11.602;2023-05-07T10:21:30;7.03;;;6.55;;
37937;SDS011;23763;48.130;11.602;2023-05-07T10:24:13;7.00;;;6.50;;
37937;SDS011;23763;48.130;11.602;2023-05-07T10:26:53;6.45;;;6.05;;
37937;SDS011;23763;48.130;11.602;2023-05-07T10:35:10;6.05;;;5.75;;
37937;SDS011;23763;48.130;11.602;2023-05-07T10:37:41;6.68;;;6.28;;
37937;SDS011;23763;48.130;11.602;2023-05-07T10:40:08;6.85;;;6.25;;
37937;SDS011;23763;48.130;11.602;2023-05-07T10:42:34;6.78;;;6.38;;
37937;SDS011;23763;48.130;11.602;2023-05-07T10:45:15;5.78;;;5.40;;
37937;SDS011;23763;48.130;11.602;2023-05-07T10:50:33;5.88;;;5.57;;
37937;SDS011;23763;48.130;11.602;2023-05-07T10:55:51;6.57;;;5.95;;
37937;SDS011;23763;48.130;11.602;2023-05-07T10:58:52;6.35;;;5.95;;
37937;SDS011;23763;48.130;11.602;2023-05-07T11:01:35;6.13;;;5.68;;
37937;SDS011;23763;48.130;11.602;2023-05-07T11:04:16;6.45;;;6.05;;
37937;SDS011;23763;48.130;11.602;2023-05-07T11:06:45;6.88;;;6.45;;
37937;SDS011;23763;48.130;11.602;2023-05-07T11:15:08;7.05;;;6.65;;
37937;SDS011;23763;48.130;11.602;2023-05-07T11:17:51;7.32;;;6.82;;
37937;SDS011;23763;48.130;11.602;2023-05-07T11:20:18;6.95;;;6.43;;
37937;SDS011;23763;48.130;11.602;2023-05-07T11:22:44;7.80;;;7.07;;
37937;SDS011;23763;48.130;11.602;2023-05-07T11:25:10;7.30;;;6.80;;
37937;SDS011;23763;48.130;11.602;2023-05-07T11:27:42;7.97;;;7.47;;
37937;SDS011;23763;48.130;11.602;2023-05-07T11:30:08;7.30;;;6.80;;
37937;SDS011;23763;48.130;11.602;2023-05-07T11:32:34;7.85;;;7.32;;
37937;SDS011;23763;48.130;11.602;2023-05-07T11:35:00;11.48;;;10.57;;
37937;SDS011;23763;48.130;11.602;2023-05-07T11:37:26;8.57;;;7.72;;
37937;SDS011;23763;48.130;11.602;2023-05-07T11:40:07;7.82;;;7.13;;
37937;SDS011;23763;48.130;11.602;2023-05-07T11:42:36;7.45;;;6.95;;
37937;SDS011;23763;48.130;11.602;2023-05-07T11:45:03;7.45;;;6.95;;
37937;SDS011;23763;48.130;11.602;2023-05-07T11:47:30;7.68;;;6.97;;
37937;SDS011;23763;48.130;11.602;2023-05-07T11:49:56;7.50;;;7.00;;
37937;SDS011;23763;48.130;11.602;2023-05-07T11:52:27;7.80;;;7.25;;
37937;SDS011;23763;48.130;11.602;2023-05-07T11:54:53;8.30;;;7.38;;
37937;SDS011;23763;48.130;11.602;2023-05-07T11:57:23;7.55;;;7.05;;
37937;SDS011;23763;48.130;11.602;2023-05-07T11:59:55;7.60;;;7.05;;
37937;SDS011;23763;48.130;11.602;2023-05-07T12:02:28;7.15;;;6.70;;
37937;SDS011;23763;48.130;11.602;2023-05-07T12:05:00;7.53;;;6.93;;
37937;SDS011;23763;48.130;11.602;2023-05-07T12:07:25;6.97;;;6.47;;
37937;SDS011;23763;48.130;11.602;2023-05-07T12:10:09;7.05;;;6.65;;
37937;SDS011;23763;48.130;11.602;2023-05-07T12:12:38;7.38;;;6.78;;
37937;SDS011;23763;48.130;11.602;2023-05-07T12:15:04;7.22;;;6.80;;
37937;SDS011;23763;48.130;11.602;2023-05-07T12:17:48;6.45;;;6.03;;
37937;SDS011;23763;48.130;11.602;2023-05-07T12:20:17;7.15;;;6.65;;
37937;SDS011;23763;48.130;11.602;2023-05-07T12:22:43;7.03;;;6.40;;
37937;SDS011;23763;48.130;11.602;2023-05-07T12:25:19;7.53;;;6.93;;
37937;SDS011;23763;48.130;11.602;2023-05-07T12:28:04;7.60;;;6.95;;
37937;SDS011;23763;48.130;11.602;2023-05-07T12:30:37;6.93;;;6.35;;
37937;SDS011;23763;48.130;11.602;2023-05-07T12:33:07;6.93;;;6.53;;
37937;SDS011;23763;48.130;11.602;2023-05-07T12:35:36;7.10;;;6.47;;
37937;SDS011;23763;48.130;11.602;2023-05-07T12:38:16;6.72;;;6.32;;
37937;SDS011;23763;48.130;11.602;2023-05-07T12:40:49;7.97;;;6.82;;
37937;SDS011;23763;48.130;11.602;2023-05-07T12:43:25;6.68;;;6.28;;
37937;SDS011;23763;48.130;11.602;2023-05-07T12:45:56;9.23;;;6.55;;
37937;SDS011;23763;48.130;11.602;2023-05-07T12:48:24;6.53;;;6.15;;
37937;SDS011;23763;48.130;11.602;2023-05-07T12:50:55;5.82;;;5.53;;
37937;SDS011;23763;48.130;11.602;2023-05-07T12:53:23;5.93;;;5.63;;
37937;SDS011;23763;48.130;11.602;2023-05-07T12:55:52;7.30;;;6.70;;
37937;SDS011;23763;48.130;11.602;2023-05-07T12:58:20;6.35;;;5.93;;
37937;SDS011;23763;48.130;11.602;2023-05-07T13:00:48;6.40;;;6.00;;
37937;SDS011;23763;48.130;11.602;2023-05-07T13:03:25;6.43;;;6.03;;
37937;SDS011;23763;48.130;11.602;2023-05-07T13:05:59;5.68;;;5.32;;
37937;SDS011;23763;48.130;11.602;2023-05-07T13:11:02;6.07;;;5.68;;
37937;SDS011;23763;48.130;11.602;2023-05-07T13:13:32;5.18;;;4.97;;
37937;SDS011;23763;48.130;11.602;2023-05-07T13:16:00;5.80;;;5.40;;
37937;SDS011;23763;48.130;11.602;2023-05-07T13:18:26;6.05;;;5.57;;
37937;SDS011;23763;48.130;11.602;2023-05-07T13:20:55;6.50;;;6.00;;
37937;SDS011;23763;48.130;11.602;2023-05-07T13:23:21;5.63;;;5.15;;
37937;SDS011;23763;48.130;11.602;2023-05-07T13:25:48;6.45;;;5.90;;
37937;SDS011;23763;48.130;11.602;2023-05-07T13:28:15;5.60;;;5.30;;
37937;SDS011;23763;48.130;11.602;2023-05-07T13:30:47;5.75;;;5.35;;
37937;SDS011;23763;48.130;11.602;2023-05-07T13:33:13;5.68;;;5.18;;
37937;SDS011;23763;48.130;11.602;2023-05-07T13:35:41;5.47;;;5.28;;
37937;SDS011;23763;48.130;11.602;2023-05-07T13:38:16;5.07;;;4.78;;
37937;SDS011;23763;48.130;11.602;2023-05-07T13:40:42;5.18;;;4.88;;
37937;SDS011;23763;48.130;11.602;2023-05-07T13:43:07;6.03;;;5.32;;
37937;SDS011;23763;48.130;11.602;2023-05-07T13:45:33;5.28;;;4.97;;
37937;SDS011;23763;48.130;11.602;2023-05-07T13:47:58;5.28;;;4.97;;
37937;SDS011;23763;48.130;11.602;2023-05-07T13:50:27;5.20;;;4.90;;
37937;SDS011;23763;48.130;11.602;2023-05-07T13:52:54;5.70;;;5.22;;
37937;SDS011;23763;48.130;11.602;2023-05-07T13:58:47;5.97;;;5.53;;
37937;SDS011;23763;48.130;11.602;2023-05-07T14:01:13;6.00;;;5.60;;
37937;SDS011;23763;48.130;11.602;2023-05-07T14:03:38;5.78;;;5.47;;
37937;SDS011;23763;48.130;11.602;2023-05-07T14:06:05;5.60;;;5.13;;
37937;SDS011;23763;48.130;11.602;2023-05-07T14:08:40;5.57;;;5.28;;
37937;SDS011;23763;48.130;11.602;2023-05-07T14:27:03;5.78;;;5.38;;
37937;SDS011;23763;48.130;11.602;2023-05-07T14:29:55;6.00;;;5.70;;
37937;SDS011;23763;48.130;11.602;2023-05-07T14:32:48;6.28;;;5.93;;
37937;SDS011;23763;48.130;11.602;2023-05-07T14:38:15;6.53;;;5.97;;
37937;SDS011;23763;48.130;11.602;2023-05-07T14:40:41;6.55;;;6.15;;
37937;SDS011;23763;48.130;11.602;2023-05-07T14:43:10;6.68;;;6.25;;
37937;SDS011;23763;48.130;11.602;2023-05-07T14:45:39;6.45;;;5.95;;
37937;SDS011;23763;48.130;11.602;2023-05-07T14:48:04;6.50;;;6.10;;
37937;SDS011;23763;48.130;11.602;2023-05-07T14:50:30;6.75;;;6.25;;
37937;SDS011;23763;48.130;11.602;2023-05-07T14:52:56;6.60;;;6.18;;
37937;SDS011;23763;48.130;11.602;2023-05-07T14:55:21;7.10;;;6.50;;
37937;SDS011;23763;48.130;11.602;2023-05-07T14:57:47;6.65;;;6.25;;
37937;SDS011;23763;48.130;11.602;2023-05-07T15:00:13;6.07;;;5.68;;
37937;SDS011;23763;48.130;11.602;2023-05-07T15:02:44;6.43;;;5.82;;
37937;SDS011;23763;48.130;11.602;2023-05-07T15:05:13;7.25;;;6.60;;
37937;SDS011;23763;48.130;11.602;2023-05-07T15:07:56;6.50;;;6.10;;
37937;SDS011;23763;48.130;11.602;2023-05-07T15:10:21;6.63;;;6.22;;
37937;SDS011;23763;48.130;11.602;2023-05-07T15:12:47;6.85;;;6.35;;
37937;SDS011;23763;48.130;11.602;2023-05-07T15:15:13;6.70;;;6.25;;
37937;SDS011;23763;48.130;11.602;2023-05-07T15:17:38;7.32;;;6.82;;
37937;SDS011;23763;48.130;11.602;2023-05-07T15:20:04;7.35;;;6.60;;
37937;SDS011;23763;48.130;11.602;2023-05-07T15:22:30;6.22;;;5.80;;
37937;SDS011;23763;48.130;11.602;2023-05-07T15:24:56;6.07;;;5.70;;
37937;SDS011;23763;48.130;11.602;2023-05-07T15:27:22;6.72;;;6.30;;